Time;durP1;ratioP1;P1;durP2;ratioP2;P2;SDS_P1;SDS_P2;PMS_P1;PMS_P2;Temp;Humidity;BMP_temperature;BMP_pressure;BME280_temperature;BME280_humidity;BME280_pressure;Samples;Min_cycle;Max_cycle;Signal;HPM_P1;HPM_P2
2023/07/26 00:00:08;;;;;;;229.03;221.00;;;11.50;99.90;;;;;;5023496;28;20817;-70
2023/07/26 00:02:35;;;;;;;219.53;211.80;;;11.60;99.90;;;;;;5035979;28;20452;-71
2023/07/26 00:05:04;;;;;;;197.53;190.30;;;11.70;99.90;;;;;;5036290;28;20460;-70
2023/07/26 00:07:31;;;;;;;192.33;185.50;;;11.70;99.90;;;;;;5035784;28;20571;-70
2023/07/26 00:09:58;;;;;;;196.53;189.47;;;11.80;99.90;;;;;;5022391;28;20468;-70
2023/07/26 00:12:26;;;;;;;194.87;187.77;;;11.90;99.90;;;;;;5015980;28;20461;-70
2023/07/26 00:14:52;;;;;;;206.27;199.00;;;11.90;99.90;;;;;;5016216;28;20537;-70
2023/07/26 00:17:19;;;;;;;212.87;205.30;;;12.00;99.90;;;;;;5016172;28;20454;-70
2023/07/26 00:19:46;;;;;;;212.40;204.80;;;12.10;99.90;;;;;;5027627;28;20975;-70
2023/07/26 00:22:14;;;;;;;215.97;208.50;;;12.20;99.90;;;;;;5035622;28;20460;-70
2023/07/26 00:24:41;;;;;;;225.90;217.73;;;12.20;99.90;;;;;;5035578;28;21020;-69
2023/07/26 00:27:08;;;;;;;226.10;217.93;;;12.30;99.90;;;;;;5035839;28;20515;-69
2023/07/26 00:29:35;;;;;;;230.63;221.90;;;12.30;99.90;;;;;;5021574;28;20450;-70
2023/07/26 00:32:02;;;;;;;220.87;212.77;;;12.30;99.90;;;;;;5015881;28;20457;-70
2023/07/26 00:34:29;;;;;;;220.80;212.90;;;12.30;99.90;;;;;;5015521;28;20544;-69
2023/07/26 00:36:55;;;;;;;221.43;213.43;;;12.30;99.90;;;;;;5015816;28;20453;-70
2023/07/26 00:39:24;;;;;;;214.33;206.53;;;12.30;99.90;;;;;;5014076;28;20879;-70
2023/07/26 00:41:50;;;;;;;206.93;199.30;;;12.40;99.90;;;;;;5015702;28;20468;-69
2023/07/26 00:44:17;;;;;;;179.20;172.80;;;12.40;99.90;;;;;;5016525;28;20930;-70
2023/07/26 00:46:44;;;;;;;179.17;172.63;;;12.40;99.90;;;;;;5015455;28;20477;-69
2023/07/26 00:49:11;;;;;;;160.40;154.57;;;12.40;99.90;;;;;;5016521;28;20441;-70
2023/07/26 00:51:38;;;;;;;111.83;107.73;;;12.50;99.90;;;;;;5015313;28;20456;-69
2023/07/26 00:54:07;;;;;;;91.13;87.73;;;12.50;99.90;;;;;;5015481;28;20545;-70
2023/07/26 00:56:35;;;;;;;60.20;57.40;;;12.60;99.90;;;;;;5015421;28;20547;-70
2023/07/26 00:59:03;;;;;;;56.33;53.90;;;12.60;99.90;;;;;;5014089;28;20631;-70
2023/07/26 01:01:29;;;;;;;49.03;46.93;;;12.60;99.90;;;;;;5014949;28;20967;-70
2023/07/26 01:03:56;;;;;;;46.23;44.10;;;12.70;99.90;;;;;;5015369;28;20475;-70
2023/07/26 01:06:30;;;;;;;45.27;42.80;;;12.70;99.90;;;;;;5014411;28;20539;-70
2023/07/26 01:09:03;;;;;;;41.67;39.67;;;12.70;99.90;;;;;;5014185;28;20461;-69
2023/07/26 01:11:39;;;;;;;35.00;33.30;;;12.70;99.90;;;;;;5014423;28;20446;-70
2023/07/26 01:14:16;;;;;;;38.10;36.30;;;12.70;99.90;;;;;;5015183;28;20505;-70
2023/07/26 01:16:44;;;;;;;44.60;42.60;;;12.70;99.90;;;;;;5014805;28;20441;-70
2023/07/26 01:19:10;;;;;;;44.50;42.50;;;12.70;99.90;;;;;;5013176;28;20457;-69
2023/07/26 01:21:39;;;;;;;51.23;49.13;;;12.70;99.90;;;;;;5014449;28;20496;-70
2023/07/26 01:24:06;;;;;;;49.97;47.47;;;12.70;99.90;;;;;;5014963;28;20454;-70
2023/07/26 01:26:33;;;;;;;46.83;44.83;;;12.70;99.90;;;;;;5014904;28;20984;-70
2023/07/26 01:29:00;;;;;;;47.27;45.17;;;12.80;99.90;;;;;;5013558;28;21001;-70
2023/07/26 01:31:27;;;;;;;47.47;45.40;;;12.80;99.90;;;;;;5014346;28;20489;-70
2023/07/26 01:33:54;;;;;;;49.47;47.37;;;12.80;99.90;;;;;;5014492;28;20456;-70
2023/07/26 01:36:23;;;;;;;49.03;46.83;;;12.80;99.90;;;;;;5015033;28;20461;-70
2023/07/26 01:38:52;;;;;;;47.70;45.40;;;12.80;99.90;;;;;;5013974;28;20454;-70
2023/07/26 01:41:20;;;;;;;42.50;40.53;;;12.80;99.90;;;;;;5013388;28;20464;-69
2023/07/26 01:43:47;;;;;;;43.77;41.37;;;12.80;99.90;;;;;;5014645;28;20512;-70
2023/07/26 01:46:15;;;;;;;42.23;39.90;;;12.80;99.90;;;;;;5014287;28;20457;-70
2023/07/26 01:48:42;;;;;;;37.87;35.60;;;12.70;99.90;;;;;;5013729;28;20568;-69
2023/07/26 01:51:09;;;;;;;39.30;37.20;;;12.70;99.90;;;;;;5013617;28;20810;-70
2023/07/26 01:53:36;;;;;;;48.60;46.50;;;12.80;99.90;;;;;;5014522;28;20884;-69
2023/07/26 01:56:04;;;;;;;48.77;46.30;;;12.80;99.90;;;;;;5014113;28;20465;-70
2023/07/26 01:58:31;;;;;;;53.70;51.10;;;12.80;99.90;;;;;;5014011;28;20807;-70
2023/07/26 02:00:58;;;;;;;54.90;52.40;;;12.80;99.90;;;;;;5013300;28;20801;-69
2023/07/26 02:03:25;;;;;;;52.30;49.90;;;12.80;99.90;;;;;;5014043;28;20453;-69
2023/07/26 02:05:52;;;;;;;57.60;55.10;;;12.70;99.90;;;;;;5014261;28;20483;-70
2023/07/26 02:08:18;;;;;;;53.80;51.60;;;12.80;99.90;;;;;;5013529;28;20473;-70
2023/07/26 02:10:45;;;;;;;41.03;39.13;;;12.80;99.90;;;;;;5028810;28;20449;-70
2023/07/26 02:13:13;;;;;;;42.97;40.67;;;12.80;99.90;;;;;;5033921;28;20978;-70
2023/07/26 02:15:41;;;;;;;43.57;41.63;;;12.70;99.90;;;;;;5033931;28;20455;-70
2023/07/26 02:18:07;;;;;;;34.50;32.40;;;12.70;99.90;;;;;;5033761;28;20536;-69
2023/07/26 02:20:34;;;;;;;36.50;34.80;;;12.80;99.90;;;;;;5020374;28;20552;-69
2023/07/26 02:23:01;;;;;;;37.07;35.27;;;12.80;99.90;;;;;;5014093;28;20483;-70
2023/07/26 02:25:28;;;;;;;42.87;40.87;;;12.80;99.90;;;;;;5014099;28;20460;-70
2023/07/26 02:27:55;;;;;;;42.27;40.17;;;12.90;99.90;;;;;;5013650;28;20991;-70
2023/07/26 02:30:23;;;;;;;43.43;41.03;;;12.90;99.90;;;;;;5012018;28;20457;-70
2023/07/26 02:32:50;;;;;;;47.00;44.90;;;12.90;99.90;;;;;;5013652;28;20975;-70
2023/07/26 02:35:17;;;;;;;45.77;43.87;;;12.90;99.90;;;;;;5013974;28;20453;-70
2023/07/26 02:37:44;;;;;;;55.07;52.77;;;12.90;99.90;;;;;;5013608;28;20464;-70
2023/07/26 02:40:12;;;;;;;60.97;58.47;;;12.90;99.90;;;;;;5012188;28;20541;-70
2023/07/26 02:42:39;;;;;;;61.67;59.07;;;12.90;99.90;;;;;;5013866;28;20462;-70
2023/07/26 02:45:07;;;;;;;58.77;56.07;;;12.90;99.90;;;;;;5013765;28;20454;-70
2023/07/26 02:47:35;;;;;;;58.23;55.93;;;12.80;99.90;;;;;;5013459;28;21016;-69
2023/07/26 02:50:04;;;;;;;59.47;56.37;;;12.90;99.90;;;;;;5012148;28;20479;-70
2023/07/26 02:52:31;;;;;;;64.10;61.50;;;12.90;99.90;;;;;;5013824;28;20937;-70
2023/07/26 02:54:58;;;;;;;58.73;56.33;;;12.90;99.90;;;;;;5013752;28;20468;-69
2023/07/26 02:57:24;;;;;;;61.40;58.73;;;12.90;99.90;;;;;;5013401;28;20945;-69
2023/07/26 02:59:51;;;;;;;58.87;56.37;;;12.90;99.90;;;;;;5011832;28;20457;-69
2023/07/26 03:02:18;;;;;;;62.20;59.00;;;12.90;99.90;;;;;;5013710;28;20476;-69
2023/07/26 03:04:46;;;;;;;61.37;58.90;;;12.90;99.90;;;;;;5013373;28;20457;-69
2023/07/26 03:07:13;;;;;;;70.53;67.40;;;12.90;99.90;;;;;;5013809;28;20461;-69
2023/07/26 03:09:40;;;;;;;74.07;70.30;;;12.90;99.90;;;;;;5011751;28;20480;-69
2023/07/26 03:12:08;;;;;;;90.17;86.37;;;12.90;99.90;;;;;;5013290;28;20947;-69
2023/07/26 03:14:40;;;;;;;95.20;91.50;;;12.90;99.90;;;;;;5013546;28;20453;-70
2023/07/26 03:17:07;;;;;;;106.57;102.67;;;12.80;99.90;;;;;;5013624;28;20450;-70
2023/07/26 03:19:34;;;;;;;114.83;110.40;;;12.80;99.90;;;;;;5016641;28;20453;-70
2023/07/26 03:22:02;;;;;;;112.80;108.67;;;12.80;99.90;;;;;;5013538;28;20454;-69
2023/07/26 03:24:29;;;;;;;111.60;107.30;;;12.80;99.90;;;;;;5013577;28;20544;-69
2023/07/26 03:26:56;;;;;;;111.33;107.33;;;12.80;99.90;;;;;;5013462;28;20453;-69
2023/07/26 03:29:23;;;;;;;112.40;108.00;;;12.90;99.90;;;;;;5013045;28;20476;-69
2023/07/26 03:31:50;;;;;;;108.43;104.53;;;12.90;99.90;;;;;;5017175;28;20460;-69
2023/07/26 03:34:16;;;;;;;101.80;97.83;;;12.90;99.90;;;;;;5017026;28;20457;-69
2023/07/26 03:36:43;;;;;;;100.47;96.63;;;13.00;99.90;;;;;;5016932;28;20464;-70
2023/07/26 03:39:11;;;;;;;110.67;106.47;;;13.00;99.90;;;;;;5015574;28;20544;-69
2023/07/26 03:41:38;;;;;;;125.27;120.47;;;13.00;99.90;;;;;;5016347;28;20453;-70
2023/07/26 03:44:05;;;;;;;134.60;129.77;;;13.10;99.90;;;;;;5016810;28;20457;-70
2023/07/26 03:46:32;;;;;;;178.80;172.30;;;13.10;99.90;;;;;;5016725;28;20820;-69
2023/07/26 03:48:59;;;;;;;263.67;254.47;;;13.00;99.90;;;;;;5015356;28;20904;-68
2023/07/26 03:51:26;;;;;;;328.10;316.23;;;12.90;99.90;;;;;;5015898;28;20463;-69
2023/07/26 03:53:52;;;;;;;326.47;315.20;;;12.80;99.90;;;;;;5016674;28;20868;-69
2023/07/26 03:56:21;;;;;;;690.23;659.13;;;12.60;99.90;;;;;;5016539;28;20453;-69
2023/07/26 03:58:48;;;;;;;823.50;780.50;;;12.60;99.90;;;;;;5015399;28;20485;-68
2023/07/26 04:01:14;;;;;;;356.80;343.07;;;12.30;99.90;;;;;;5015344;28;20461;-68
2023/07/26 04:03:41;;;;;;;561.87;541.13;;;11.70;99.90;;;;;;5016449;28;20462;-67
2023/07/26 04:06:12;;;;;;;476.63;460.93;;;11.60;99.90;;;;;;5016081;28;20457;-69
2023/07/26 04:08:39;;;;;;;403.03;390.53;;;11.40;99.90;;;;;;5015742;28;20465;-69
2023/07/26 04:11:06;;;;;;;524.93;506.67;;;11.20;99.90;;;;;;5015163;28;20449;-69
2023/07/26 04:13:35;;;;;;;663.73;632.33;;;11.40;99.90;;;;;;5016276;28;20817;-68
2023/07/26 04:16:02;;;;;;;699.17;661.53;;;11.50;99.90;;;;;;5016209;28;20460;-68
2023/07/26 04:18:29;;;;;;;704.23;662.63;;;11.30;99.90;;;;;;5015847;28;20449;-70
2023/07/26 04:20:55;;;;;;;721.43;674.83;;;11.60;99.90;;;;;;5016319;28;20445;-69
2023/07/26 04:23:22;;;;;;;702.27;655.10;;;11.60;99.90;;;;;;5016035;28;20462;-69
2023/07/26 04:25:51;;;;;;;711.33;663.23;;;11.70;99.90;;;;;;5016038;28;20453;-69
2023/07/26 04:28:18;;;;;;;725.53;675.20;;;11.50;99.90;;;;;;5015752;28;20473;-68
2023/07/26 04:30:48;;;;;;;719.80;669.07;;;11.80;99.90;;;;;;5014591;28;20841;-69
2023/07/26 04:33:15;;;;;;;738.97;686.87;;;11.60;99.90;;;;;;5016231;28;20449;-68
2023/07/26 04:35:44;;;;;;;755.80;702.83;;;11.70;99.90;;;;;;5015901;28;20453;-68
2023/07/26 04:38:12;;;;;;;780.37;726.47;;;12.00;99.90;;;;;;5015400;28;20942;-68
2023/07/26 04:40:38;;;;;;;787.40;732.80;;;11.90;99.90;;;;;;5012692;28;20453;-68
2023/07/26 04:43:05;;;;;;;806.57;750.73;;;11.90;99.90;;;;;;5015730;28;20553;-72
2023/07/26 04:45:32;;;;;;;819.60;761.77;;;11.80;99.90;;;;;;5015648;28;20465;-69
2023/07/26 04:48:00;;;;;;;822.60;764.80;;;11.70;99.90;;;;;;5015301;28;20483;-68
2023/07/26 04:50:27;;;;;;;826.17;767.57;;;12.10;99.90;;;;;;5030010;28;20448;-68
2023/07/26 04:52:54;;;;;;;816.27;757.87;;;11.90;99.90;;;;;;5035086;28;20456;-68
2023/07/26 04:55:21;;;;;;;819.10;760.40;;;11.90;99.90;;;;;;5035333;28;20460;-68
2023/07/26 04:57:47;;;;;;;825.13;765.80;;;12.00;99.90;;;;;;5035278;28;20456;-68
2023/07/26 05:00:15;;;;;;;823.37;764.17;;;12.20;99.90;;;;;;5033382;28;20835;-68
2023/07/26 05:02:42;;;;;;;809.83;751.33;;;12.30;99.90;;;;;;5035151;28;20456;-68
2023/07/26 05:05:10;;;;;;;791.60;733.80;;;12.00;99.90;;;;;;5035141;28;20460;-68
2023/07/26 05:07:37;;;;;;;793.30;734.93;;;12.00;99.90;;;;;;5035246;28;20459;-68
2023/07/26 05:10:05;;;;;;;777.77;720.70;;;12.10;99.90;;;;;;5019817;28;20452;-68
2023/07/26 05:12:32;;;;;;;754.30;698.43;;;12.20;99.90;;;;;;5015234;28;20461;-68
2023/07/26 05:14:58;;;;;;;721.70;669.20;;;12.20;99.90;;;;;;5015175;28;20454;-68
2023/07/26 05:17:25;;;;;;;733.27;679.37;;;12.30;99.90;;;;;;5014797;28;20465;-67
2023/07/26 05:19:52;;;;;;;730.63;676.83;;;12.70;99.90;;;;;;5013107;28;20453;-67
2023/07/26 05:22:20;;;;;;;743.67;689.97;;;12.50;99.90;;;;;;5015018;28;20453;-67
2023/07/26 05:24:47;;;;;;;745.47;691.37;;;12.70;99.90;;;;;;5015036;28;20459;-67
2023/07/26 05:27:14;;;;;;;720.60;667.40;;;12.90;99.90;;;;;;5014950;28;20454;-67
2023/07/26 05:29:41;;;;;;;675.17;624.03;;;13.10;99.90;;;;;;5012834;28;20940;-67
2023/07/26 05:32:09;;;;;;;640.90;595.20;;;12.90;99.90;;;;;;5014813;28;20454;-67
2023/07/26 05:34:36;;;;;;;635.90;593.53;;;12.90;99.90;;;;;;5014487;28;20971;-68
2023/07/26 05:37:03;;;;;;;645.27;603.00;;;12.70;99.90;;;;;;5015609;28;20453;-68
2023/07/26 05:39:33;;;;;;;653.87;611.93;;;13.10;99.90;;;;;;5012997;28;20454;-68
2023/07/26 05:41:59;;;;;;;661.30;619.67;;;12.70;99.90;;;;;;5014731;28;20540;-68
2023/07/26 05:44:26;;;;;;;675.63;632.30;;;12.80;99.90;;;;;;5015671;28;20458;-68
2023/07/26 05:46:53;;;;;;;672.50;629.17;;;12.90;99.90;;;;;;5014140;28;20964;-70
2023/07/26 05:49:20;;;;;;;669.83;625.90;;;13.20;99.90;;;;;;5019193;28;20472;-70
2023/07/26 05:51:47;;;;;;;674.27;630.17;;;12.90;99.90;;;;;;5033786;28;20452;-70
2023/07/26 05:54:14;;;;;;;666.60;621.50;;;13.40;99.90;;;;;;5033947;28;21058;-69
2023/07/26 05:56:42;;;;;;;619.70;581.17;;;13.60;99.90;;;;;;5033873;28;20456;-69
2023/07/26 05:59:09;;;;;;;627.63;586.03;;;13.50;99.90;;;;;;5025750;28;20524;-70
2023/07/26 06:01:36;;;;;;;626.83;590.30;;;13.80;99.90;;;;;;5013576;28;20988;-70
2023/07/26 06:04:03;;;;;;;584.27;557.03;;;14.30;99.90;;;;;;5014355;28;20458;-70
2023/07/26 06:06:30;;;;;;;545.13;521.53;;;14.30;99.90;;;;;;5014032;28;20548;-70
2023/07/26 06:08:58;;;;;;;331.63;319.53;;;14.90;99.90;;;;;;5015819;28;20469;-70
2023/07/26 06:11:25;;;;;;;105.40;101.20;;;15.30;99.90;;;;;;5016349;28;20453;-70
2023/07/26 06:13:54;;;;;;;58.30;55.63;;;15.30;99.90;;;;;;5014251;28;20802;-71
2023/07/26 06:16:21;;;;;;;19.67;17.87;;;15.40;99.90;;;;;;5014190;28;20544;-70
2023/07/26 06:18:49;;;;;;;12.60;11.20;;;15.10;99.90;;;;;;5014862;28;20826;-71
2023/07/26 06:21:17;;;;;;;13.70;12.50;;;15.10;99.90;;;;;;5032179;28;20440;-70
2023/07/26 06:23:44;;;;;;;12.90;11.60;;;15.00;99.90;;;;;;5033865;28;20535;-70
2023/07/26 06:26:11;;;;;;;20.50;19.10;;;14.80;99.90;;;;;;5033870;28;20456;-70
2023/07/26 06:28:38;;;;;;;21.97;20.40;;;14.80;99.90;;;;;;5033126;28;20480;-70
2023/07/26 06:31:06;;;;;;;21.47;19.80;;;14.70;99.90;;;;;;5032371;28;20960;-70
2023/07/26 06:33:33;;;;;;;31.23;28.53;;;14.80;99.90;;;;;;5033753;28;20457;-70
2023/07/26 06:36:00;;;;;;;38.03;35.87;;;14.70;99.90;;;;;;5033414;28;20459;-70
2023/07/26 06:38:26;;;;;;;76.03;72.70;;;15.00;99.90;;;;;;5033810;28;20547;-70
2023/07/26 06:40:53;;;;;;;40.93;38.77;;;15.30;99.90;;;;;;5030737;28;20471;-71
2023/07/26 06:43:20;;;;;;;9.17;6.40;;;15.60;99.90;;;;;;5033583;28;20452;-71
2023/07/26 06:45:50;;;;;;;8.57;5.80;;;15.70;99.90;;;;;;5033652;28;20548;-71
2023/07/26 06:48:18;;;;;;;10.43;5.70;;;15.90;99.90;;;;;;5033042;28;20863;-71
2023/07/26 06:50:45;;;;;;;13.10;5.00;;;16.30;99.90;;;;;;5020389;28;20449;-71
2023/07/26 06:53:12;;;;;;;9.77;5.00;;;16.30;99.90;;;;;;5014018;28;20814;-71
2023/07/26 06:55:40;;;;;;;11.73;6.60;;;16.10;99.90;;;;;;5013803;28;20454;-71
2023/07/26 06:58:07;;;;;;;10.50;6.17;;;16.20;99.90;;;;;;5013727;28;20485;-71
2023/07/26 07:00:33;;;;;;;8.80;4.37;;;16.30;99.90;;;;;;5020194;28;20800;-71
2023/07/26 07:03:01;;;;;;;11.77;5.03;;;16.70;99.90;;;;;;5033495;28;20479;-71
2023/07/26 07:05:31;;;;;;;9.17;4.77;;;16.90;99.90;;;;;;5036427;28;20463;-71
2023/07/26 07:07:58;;;;;;;8.10;4.50;;;16.90;99.90;;;;;;5037058;28;20471;-71
2023/07/26 07:10:25;;;;;;;8.07;4.50;;;16.80;99.90;;;;;;5018030;28;20469;-71
2023/07/26 07:12:51;;;;;;;13.23;5.50;;;17.30;99.90;;;;;;5017160;28;20453;-70
2023/07/26 07:15:18;;;;;;;11.03;4.63;;;17.00;99.90;;;;;;5017209;28;20547;-71
2023/07/26 07:17:45;;;;;;;10.23;6.03;;;16.80;99.90;;;;;;5017347;28;20465;-70
2023/07/26 07:20:12;;;;;;;10.30;4.50;;;17.20;99.90;;;;;;5015814;28;20452;-70
2023/07/26 07:22:41;;;;;;;10.53;5.20;;;17.40;99.90;;;;;;5017283;28;20457;-71
2023/07/26 07:25:09;;;;;;;9.90;5.03;;;17.20;99.90;;;;;;5016925;28;20485;-71
2023/07/26 07:27:36;;;;;;;8.10;5.13;;;17.30;99.90;;;;;;5016890;28;20497;-70
2023/07/26 07:30:03;;;;;;;8.97;5.13;;;17.60;99.90;;;;;;5027314;28;20976;-71
2023/07/26 07:32:30;;;;;;;9.90;5.03;;;17.40;99.90;;;;;;5037460;28;20467;-71
2023/07/26 07:34:57;;;;;;;12.63;5.40;;;17.70;99.90;;;;;;5036541;28;21007;-71
2023/07/26 07:37:24;;;;;;;10.00;4.60;;;17.70;99.90;;;;;;5036796;28;20488;-71
2023/07/26 07:39:52;;;;;;;8.80;4.17;;;17.70;99.90;;;;;;5025316;28;20520;-71
2023/07/26 07:42:19;;;;;;;9.87;5.50;;;17.50;99.90;;;;;;5016930;28;20457;-71
2023/07/26 07:44:45;;;;;;;11.88;6.32;;;17.90;99.90;;;;;;5023659;28;20544;-70
2023/07/26 07:47:12;;;;;;;11.83;5.00;;;17.80;99.90;;;;;;5023749;28;20605;-70
2023/07/26 07:49:39;;;;;;;9.30;4.83;;;18.40;99.90;;;;;;5013806;28;20492;-70
2023/07/26 07:52:07;;;;;;;9.93;4.63;;;18.20;99.90;;;;;;5016809;28;20454;-70
2023/07/26 07:54:34;;;;;;;11.10;5.00;;;18.10;99.90;;;;;;5016454;28;20960;-71
2023/07/26 07:57:02;;;;;;;13.97;5.47;;;18.70;99.90;;;;;;5016624;28;20841;-71
2023/07/26 07:59:29;;;;;;;11.40;4.73;;;18.90;94.70;;;;;;5014887;28;20869;-71
2023/07/26 08:01:56;;;;;;;11.27;5.30;;;19.70;95.00;;;;;;5016600;28;20468;-72
2023/07/26 08:04:23;;;;;;;11.90;4.87;;;20.10;88.70;;;;;;5016434;28;20453;-70
2023/07/26 08:06:49;;;;;;;12.73;5.30;;;20.30;87.00;;;;;;5016503;28;20965;-71
2023/07/26 08:09:16;;;;;;;16.60;5.13;;;20.80;87.60;;;;;;5014820;28;20487;-70
2023/07/26 08:11:43;;;;;;;9.50;5.00;;;21.20;79.30;;;;;;5016199;28;20454;-71
2023/07/26 08:14:11;;;;;;;10.60;4.73;;;21.40;76.80;;;;;;5016053;28;20464;-70
2023/07/26 08:16:38;;;;;;;10.27;5.10;;;21.60;71.60;;;;;;5015677;28;20560;-70
2023/07/26 08:19:05;;;;;;;12.60;5.20;;;22.10;72.00;;;;;;5015154;28;20485;-70
2023/07/26 08:21:32;;;;;;;8.73;4.37;;;21.90;63.60;;;;;;5015263;28;20930;-70
2023/07/26 08:23:59;;;;;;;9.23;4.20;;;21.40;63.20;;;;;;5015827;28;20464;-70
2023/07/26 08:26:25;;;;;;;9.73;4.60;;;21.30;71.30;;;;;;5015832;28;20453;-71
2023/07/26 08:28:52;;;;;;;9.83;5.30;;;21.50;64.00;;;;;;5015192;28;20457;-70
2023/07/26 08:31:20;;;;;;;11.13;4.60;;;21.00;62.80;;;;;;5015123;28;20453;-71
2023/07/26 08:33:47;;;;;;;9.03;4.40;;;21.30;71.10;;;;;;5015909;28;20449;-71
2023/07/26 08:36:14;;;;;;;12.37;4.80;;;20.90;69.20;;;;;;5015933;28;20500;-71
2023/07/26 08:38:41;;;;;;;10.70;5.50;;;20.80;64.60;;;;;;5015260;28;20456;-70
2023/07/26 08:41:08;;;;;;;14.67;5.23;;;20.50;66.50;;;;;;5014822;28;20449;-71
2023/07/26 08:43:38;;;;;;;10.73;4.70;;;20.30;70.40;;;;;;5015476;28;20549;-70
2023/07/26 08:46:07;;;;;;;10.63;4.60;;;20.10;70.20;;;;;;5015998;28;20503;-70
2023/07/26 08:48:37;;;;;;;12.07;4.73;;;20.30;70.40;;;;;;5015034;28;20953;-70
2023/07/26 08:51:04;;;;;;;8.97;4.93;;;20.60;67.00;;;;;;5014194;28;20992;-70
2023/07/26 08:53:32;;;;;;;11.83;4.50;;;21.20;65.30;;;;;;5015451;28;20457;-71
2023/07/26 08:55:59;;;;;;;10.40;5.40;;;21.40;63.10;;;;;;5015219;28;20458;-70
2023/07/26 08:58:26;;;;;;;9.57;4.93;;;21.70;54.80;;;;;;5014886;28;20528;-70
2023/07/26 09:00:54;;;;;;;9.57;4.73;;;22.00;55.10;;;;;;5013968;28;20489;-70
2023/07/26 09:03:21;;;;;;;7.70;4.80;;;21.80;56.50;;;;;;5015193;28;20464;-71
2023/07/26 09:06:02;;;;;;;7.77;4.20;;;22.30;59.30;;;;;;5015121;28;20965;-70
2023/07/26 09:08:29;;;;;;;10.00;5.47;;;22.30;55.40;;;;;;5014665;28;20910;-70
2023/07/26 09:10:56;;;;;;;13.73;5.03;;;21.90;46.20;;;;;;5013621;28;20481;-70
2023/07/26 09:13:23;;;;;;;9.90;4.40;;;21.90;46.20;;;;;;5015211;28;20940;-71
2023/07/26 09:15:51;;;;;;;12.73;4.50;;;22.00;50.20;;;;;;5015212;28;20458;-70
2023/07/26 09:18:18;;;;;;;9.77;4.83;;;22.00;49.20;;;;;;5015055;28;20454;-70
2023/07/26 09:20:45;;;;;;;12.17;4.70;;;21.40;51.20;;;;;;5013729;28;20941;-70
2023/07/26 09:23:13;;;;;;;8.07;3.67;;;21.20;47.80;;;;;;5015078;28;20489;-71
2023/07/26 09:25:42;;;;;;;8.00;4.10;;;21.70;54.80;;;;;;5014902;28;20450;-71
2023/07/26 09:28:10;;;;;;;10.07;3.93;;;21.50;45.80;;;;;;5014248;28;20536;-70
2023/07/26 09:30:39;;;;;;;10.93;4.00;;;21.50;45.80;;;;;;5013121;28;20549;-70
2023/07/26 09:33:08;;;;;;;7.60;3.90;;;21.60;45.90;;;;;;5014616;28;20964;-70
2023/07/26 09:35:43;;;;;;;11.20;4.63;;;22.10;37.30;;;;;;5014820;28;20459;-70
2023/07/26 09:38:18;;;;;;;17.47;4.37;;;22.40;37.70;;;;;;5015536;28;20448;-71
2023/07/26 09:40:45;;;;;;;6.67;3.50;;;23.00;38.60;;;;;;5013143;28;20456;-70
2023/07/26 09:43:11;;;;;;;8.73;3.17;;;22.50;28.90;;;;;;5014382;28;20453;-71
2023/07/26 09:45:40;;;;;;;11.10;4.23;;;22.30;28.70;;;;;;5014627;28;20449;-71
2023/07/26 09:48:08;;;;;;;8.47;3.80;;;21.40;36.60;;;;;;5014574;28;20822;-71
2023/07/26 09:50:36;;;;;;;12.90;5.20;;;20.30;48.40;;;;;;5012607;28;20484;-68
2023/07/26 09:53:04;;;;;;;12.43;6.10;;;17.90;99.90;;;;;;5014265;28;20495;-67
2023/07/26 09:55:34;;;;;;;9.43;4.20;;;16.10;99.90;;;;;;5014518;28;20463;-67
2023/07/26 09:58:01;;;;;;;17.13;5.17;;;15.00;99.90;;;;;;5014174;28;20454;-67
2023/07/26 10:00:29;;;;;;;14.70;7.93;;;14.10;99.90;;;;;;5012440;28;20947;-66
2023/07/26 10:02:59;;;;;;;18.67;6.60;;;14.00;99.90;;;;;;5014378;28;20453;-66
2023/07/26 10:05:27;;;;;;;10.50;6.60;;;13.80;99.90;;;;;;5014601;28;20457;-65
2023/07/26 10:07:54;;;;;;;20.83;19.13;;;13.50;99.90;;;;;;5014384;28;20536;-66
2023/07/26 10:10:23;;;;;;;201.70;194.57;;;13.90;99.90;;;;;;5012333;28;20484;-66
2023/07/26 10:12:53;;;;;;;503.67;484.83;;;14.30;99.90;;;;;;5014360;28;20856;-66
2023/07/26 10:15:22;;;;;;;393.13;378.67;;;15.30;99.90;;;;;;5014183;28;20544;-67
2023/07/26 10:17:52;;;;;;;599.40;572.30;;;16.90;99.90;;;;;;5014143;28;20454;-67
2023/07/26 10:20:19;;;;;;;61.33;58.60;;;17.60;99.90;;;;;;5012610;28;20454;-67
2023/07/26 10:22:48;;;;;;;16.80;6.17;;;17.80;99.90;;;;;;5014339;28;20457;-67
2023/07/26 10:25:15;;;;;;;7.97;6.10;;;17.30;99.90;;;;;;5014110;28;20823;-67
2023/07/26 10:27:43;;;;;;;8.47;4.53;;;16.80;99.90;;;;;;5014107;28;20453;-67
2023/07/26 10:30:12;;;;;;;7.93;4.40;;;16.10;99.90;;;;;;5012025;28;20508;-68
2023/07/26 10:32:41;;;;;;;11.10;6.10;;;15.30;99.90;;;;;;5014029;28;20458;-67
2023/07/26 10:35:11;;;;;;;19.97;8.50;;;14.90;99.90;;;;;;5013982;28;20556;-67
2023/07/26 10:37:38;;;;;;;15.80;10.90;;;14.40;99.90;;;;;;5014543;28;20460;-67
2023/07/26 10:40:29;;;;;;;16.37;10.10;;;14.50;99.90;;;;;;5016244;28;20461;-68
2023/07/26 10:42:56;;;;;;;12.70;9.53;;;14.40;99.90;;;;;;5017795;28;20932;-67
2023/07/26 10:45:40;;;;;;;97.40;92.37;;;14.20;99.90;;;;;;5017699;28;20937;-67
2023/07/26 10:48:13;;;;;;;277.73;269.07;;;14.30;99.90;;;;;;5016627;28;20464;-67
2023/07/26 10:50:40;;;;;;;319.23;309.63;;;14.30;99.90;;;;;;5016122;28;20572;-67
2023/07/26 10:53:36;;;;;;;140.17;135.03;;;14.40;99.90;;;;;;5017536;28;20458;-67
2023/07/26 10:56:11;;;;;;;40.00;37.83;;;14.40;99.90;;;;;;5009136;28;20778;-67
2023/07/26 10:58:49;;;;;;;530.37;512.00;;;14.50;99.90;;;;;;5017060;28;20452;-67
2023/07/26 11:01:33;;;;;;;714.93;685.73;;;15.10;99.90;;;;;;5016707;28;20441;-67
2023/07/26 11:04:00;;;;;;;717.37;688.33;;;15.70;99.90;;;;;;5017360;28;20908;-67
2023/07/26 11:06:49;;;;;;;549.17;531.47;;;16.10;99.90;;;;;;5017545;28;20445;-67
2023/07/26 11:09:21;;;;;;;200.77;194.20;;;16.20;99.90;;;;;;5015772;28;20476;-67
2023/07/26 11:11:59;;;;;;;95.60;91.60;;;16.60;99.90;;;;;;5017302;28;20485;-67
2023/07/26 11:14:26;;;;;;;26.23;24.40;;;17.60;99.90;;;;;;5017575;28;20441;-67
2023/07/26 11:16:55;;;;;;;13.10;5.90;;;18.30;99.90;;;;;;5017086;28;20979;-68
2023/07/26 11:19:22;;;;;;;9.80;5.20;;;18.80;99.90;;;;;;5015674;28;20552;-68
2023/07/26 11:21:50;;;;;;;7.73;4.73;;;19.80;99.90;;;;;;5016923;28;20952;-69
2023/07/26 11:24:17;;;;;;;6.70;4.07;;;20.50;99.90;;;;;;5017308;28;20545;-69
2023/07/26 11:26:45;;;;;;;8.80;4.20;;;20.80;99.90;;;;;;5017240;28;20489;-69
2023/07/26 11:29:13;;;;;;;8.90;4.00;;;20.80;99.90;;;;;;5016143;28;20881;-69
2023/07/26 11:31:40;;;;;;;15.03;5.30;;;21.30;99.90;;;;;;5016807;28;20517;-70
2023/07/26 11:34:19;;;;;;;13.03;5.03;;;20.60;99.90;;;;;;5016807;28;20945;-70
2023/07/26 11:36:46;;;;;;;11.20;5.23;;;20.50;99.90;;;;;;5017107;28;20445;-69
2023/07/26 11:39:21;;;;;;;13.63;5.70;;;21.00;99.90;;;;;;5015617;28;20540;-69
2023/07/26 11:41:48;;;;;;;8.60;4.83;;;21.80;99.90;;;;;;5016829;28;20459;-69
2023/07/26 11:44:15;;;;;;;8.30;4.53;;;22.50;99.90;;;;;;5016955;28;20453;-69
2023/07/26 11:46:44;;;;;;;10.17;4.70;;;23.50;99.90;;;;;;5016748;28;20540;-69
2023/07/26 11:49:12;;;;;;;10.20;5.30;;;23.70;99.90;;;;;;5015385;28;20445;-69
2023/07/26 11:51:41;;;;;;;8.20;4.10;;;24.80;99.90;;;;;;5015988;28;21059;-69
2023/07/26 11:54:11;;;;;;;10.10;4.37;;;25.50;90.40;;;;;;5016731;28;20458;-69
2023/07/26 11:56:38;;;;;;;7.20;3.53;;;25.80;77.00;;;;;;5016740;28;20493;-69
2023/07/26 11:59:05;;;;;;;7.57;4.13;;;25.70;49.50;;;;;;5015451;28;20546;-69
2023/07/26 12:01:34;;;;;;;6.70;3.77;;;25.60;73.60;;;;;;5016164;28;20451;-69
2023/07/26 12:04:01;;;;;;;9.27;3.93;;;24.30;50.10;;;;;;5016306;28;20469;-70
2023/07/26 12:06:33;;;;;;;7.10;3.77;;;25.30;62.20;;;;;;5016295;28;20503;-69
2023/07/26 12:09:10;;;;;;;9.47;3.67;;;25.20;74.80;;;;;;5015202;28;20457;-69
2023/07/26 12:11:38;;;;;;;9.27;4.37;;;24.70;44.80;;;;;;5016155;28;20480;-69
2023/07/26 12:14:05;;;;;;;9.50;4.17;;;23.80;56.90;;;;;;5016059;28;20445;-69
2023/07/26 12:16:32;;;;;;;7.03;3.73;;;23.90;48.00;;;;;;5016351;28;20544;-70
2023/07/26 12:19:00;;;;;;;7.03;3.20;;;23.60;36.90;;;;;;5015032;28;20800;-69
2023/07/26 12:21:28;;;;;;;5.90;2.80;;;23.60;22.40;;;;;;5015344;28;20484;-69
2023/07/26 12:23:57;;;;;;;9.03;3.40;;;24.70;23.10;;;;;;5029214;28;20449;-70
2023/07/26 12:26:28;;;;;;;7.20;2.93;;;25.50;23.60;;;;;;5035037;28;20511;-70
2023/07/26 12:28:56;;;;;;;6.23;2.90;;;26.30;9.60;;;;;;5023304;28;20663;-69